sensor_id;sensor_type;location;lat;lon;timestamp;P1;durP1;ratioP1;P2;durP2;ratioP2
69943;SDS011;57257;48.408;-4.498;2022-08-27T00:00:19;2.75;;;1.00;;
69943;SDS011;57257;48.408;-4.498;2022-08-27T00:02:46;1.25;;;1.25;;
69943;SDS011;57257;48.408;-4.498;2022-08-27T00:05:13;1.50;;;1.50;;
69943;SDS011;57257;48.408;-4.498;2022-08-27T00:07:40;1.00;;;1.00;;
69943;SDS011;57257;48.408;-4.498;2022-08-27T00:10:07;1.50;;;1.50;;
69943;SDS011;57257;48.408;-4.498;2022-08-27T00:12:34;1.25;;;1.00;;
69943;SDS011;57257;48.408;-4.498;2022-08-27T00:15:01;1.75;;;1.75;;
69943;SDS011;57257;48.408;-4.498;2022-08-27T00:17:28;1.00;;;1.00;;
69943;SDS011;57257;48.408;-4.498;2022-08-27T00:19:53;2.00;;;2.00;;
69943;SDS011;57257;48.408;-4.498;2022-08-27T00:22:19;1.25;;;1.25;;
69943;SDS011;57257;48.408;-4.498;2022-08-27T00:24:44;2.00;;;2.00;;
69943;SDS011;57257;48.408;-4.498;2022-08-27T00:27:09;3.75;;;2.50;;
69943;SDS011;57257;48.408;-4.498;2022-08-27T00:29:35;2.75;;;2.25;;
69943;SDS011;57257;48.408;-4.498;2022-08-27T00:32:00;2.00;;;2.00;;
69943;SDS011;57257;48.408;-4.498;2022-08-27T00:34:26;2.50;;;2.25;;
69943;SDS011;57257;48.408;-4.498;2022-08-27T00:36:52;3.00;;;3.00;;
69943;SDS011;57257;48.408;-4.498;2022-08-27T00:39:18;2.00;;;1.75;;
69943;SDS011;57257;48.408;-4.498;2022-08-27T00:41:44;3.00;;;3.00;;
69943;SDS011;57257;48.408;-4.498;2022-08-27T00:44:10;2.75;;;2.75;;
69943;SDS011;57257;48.408;-4.498;2022-08-27T00:46:41;3.00;;;3.00;;
69943;SDS011;57257;48.408;-4.498;2022-08-27T00:49:22;4.00;;;3.25;;
69943;SDS011;57257;48.408;-4.498;2022-08-27T00:51:57;5.25;;;4.00;;
69943;SDS011;57257;48.408;-4.498;2022-08-27T00:54:27;4.00;;;4.00;;
69943;SDS011;57257;48.408;-4.498;2022-08-27T00:56:53;4.75;;;3.75;;
69943;SDS011;57257;48.408;-4.498;2022-08-27T00:59:21;5.25;;;4.00;;
69943;SDS011;57257;48.408;-4.498;2022-08-27T01:01:48;4.25;;;4.25;;
69943;SDS011;57257;48.408;-4.498;2022-08-27T01:04:33;3.75;;;3.75;;
69943;SDS011;57257;48.408;-4.498;2022-08-27T01:07:01;5.50;;;5.00;;
69943;SDS011;57257;48.408;-4.498;2022-08-27T01:09:28;4.75;;;4.75;;
69943;SDS011;57257;48.408;-4.498;2022-08-27T01:11:54;4.50;;;4.50;;
69943;SDS011;57257;48.408;-4.498;2022-08-27T01:14:22;7.50;;;6.00;;
69943;SDS011;57257;48.408;-4.498;2022-08-27T01:16:51;5.00;;;5.00;;
69943;SDS011;57257;48.408;-4.498;2022-08-27T01:24:48;6.00;;;5.75;;
69943;SDS011;57257;48.408;-4.498;2022-08-27T01:27:18;7.50;;;4.25;;
69943;SDS011;57257;48.408;-4.498;2022-08-27T01:29:47;6.00;;;6.00;;
69943;SDS011;57257;48.408;-4.498;2022-08-27T01:32:15;6.50;;;6.50;;
69943;SDS011;57257;48.408;-4.498;2022-08-27T01:34:43;5.75;;;5.75;;
69943;SDS011;57257;48.408;-4.498;2022-08-27T01:37:10;7.00;;;5.75;;
69943;SDS011;57257;48.408;-4.498;2022-08-27T01:39:37;4.50;;;4.50;;
69943;SDS011;57257;48.408;-4.498;2022-08-27T01:42:26;5.25;;;5.00;;
69943;SDS011;57257;48.408;-4.498;2022-08-27T01:47:23;4.75;;;4.75;;
69943;SDS011;57257;48.408;-4.498;2022-08-27T01:49:50;6.50;;;5.00;;
69943;SDS011;57257;48.408;-4.498;2022-08-27T01:52:17;5.00;;;5.00;;
69943;SDS011;57257;48.408;-4.498;2022-08-27T01:54:45;6.50;;;3.75;;
69943;SDS011;57257;48.408;-4.498;2022-08-27T01:57:12;6.75;;;4.25;;
69943;SDS011;57257;48.408;-4.498;2022-08-27T01:59:37;5.50;;;5.00;;
69943;SDS011;57257;48.408;-4.498;2022-08-27T02:02:03;4.50;;;3.00;;
69943;SDS011;57257;48.408;-4.498;2022-08-27T02:04:30;4.00;;;4.00;;
69943;SDS011;57257;48.408;-4.498;2022-08-27T02:06:56;6.00;;;5.25;;
69943;SDS011;57257;48.408;-4.498;2022-08-27T02:09:22;8.75;;;5.50;;
69943;SDS011;57257;48.408;-4.498;2022-08-27T02:11:48;6.00;;;6.00;;
69943;SDS011;57257;48.408;-4.498;2022-08-27T02:14:14;5.00;;;5.00;;
69943;SDS011;57257;48.408;-4.498;2022-08-27T02:16:40;4.00;;;4.00;;
69943;SDS011;57257;48.408;-4.498;2022-08-27T02:19:05;7.75;;;6.25;;
69943;SDS011;57257;48.408;-4.498;2022-08-27T02:21:31;5.75;;;5.50;;
69943;SDS011;57257;48.408;-4.498;2022-08-27T02:23:57;7.00;;;6.25;;
69943;SDS011;57257;48.408;-4.498;2022-08-27T02:26:22;7.25;;;7.25;;
69943;SDS011;57257;48.408;-4.498;2022-08-27T02:28:48;6.50;;;6.00;;
69943;SDS011;57257;48.408;-4.498;2022-08-27T02:31:13;6.50;;;6.50;;
69943;SDS011;57257;48.408;-4.498;2022-08-27T02:33:40;7.00;;;6.00;;
69943;SDS011;57257;48.408;-4.498;2022-08-27T02:36:06;7.00;;;7.00;;
69943;SDS011;57257;48.408;-4.498;2022-08-27T02:38:32;8.25;;;8.25;;
69943;SDS011;57257;48.408;-4.498;2022-08-27T02:40:58;9.25;;;8.00;;
69943;SDS011;57257;48.408;-4.498;2022-08-27T02:43:23;7.50;;;7.50;;
69943;SDS011;57257;48.408;-4.498;2022-08-27T02:45:49;7.75;;;7.75;;
69943;SDS011;57257;48.408;-4.498;2022-08-27T02:48:15;7.50;;;7.50;;
69943;SDS011;57257;48.408;-4.498;2022-08-27T02:50:41;8.25;;;7.00;;
69943;SDS011;57257;48.408;-4.498;2022-08-27T02:53:09;8.25;;;7.75;;
69943;SDS011;57257;48.408;-4.498;2022-08-27T02:55:35;8.00;;;7.75;;
69943;SDS011;57257;48.408;-4.498;2022-08-27T02:58:00;4.00;;;4.00;;
69943;SDS011;57257;48.408;-4.498;2022-08-27T03:00:26;6.00;;;6.00;;
69943;SDS011;57257;48.408;-4.498;2022-08-27T03:02:52;8.75;;;6.75;;
69943;SDS011;57257;48.408;-4.498;2022-08-27T03:05:19;6.75;;;6.75;;
69943;SDS011;57257;48.408;-4.498;2022-08-27T03:07:44;5.00;;;3.25;;
69943;SDS011;57257;48.408;-4.498;2022-08-27T03:10:10;9.00;;;6.00;;
69943;SDS011;57257;48.408;-4.498;2022-08-27T03:12:37;7.50;;;5.75;;
69943;SDS011;57257;48.408;-4.498;2022-08-27T03:15:04;3.00;;;3.00;;
69943;SDS011;57257;48.408;-4.498;2022-08-27T03:17:31;4.00;;;4.00;;
69943;SDS011;57257;48.408;-4.498;2022-08-27T03:20:15;9.75;;;9.75;;
69943;SDS011;57257;48.408;-4.498;2022-08-27T03:22:41;8.00;;;8.00;;
69943;SDS011;57257;48.408;-4.498;2022-08-27T03:25:06;8.00;;;7.00;;
69943;SDS011;57257;48.408;-4.498;2022-08-27T03:27:33;3.50;;;3.50;;
69943;SDS011;57257;48.408;-4.498;2022-08-27T03:30:00;9.00;;;9.00;;
69943;SDS011;57257;48.408;-4.498;2022-08-27T03:32:27;10.25;;;6.25;;
69943;SDS011;57257;48.408;-4.498;2022-08-27T03:34:55;3.50;;;3.50;;
69943;SDS011;57257;48.408;-4.498;2022-08-27T03:37:22;3.25;;;3.25;;
69943;SDS011;57257;48.408;-4.498;2022-08-27T03:39:47;9.00;;;6.00;;
69943;SDS011;57257;48.408;-4.498;2022-08-27T03:42:13;8.25;;;8.00;;
69943;SDS011;57257;48.408;-4.498;2022-08-27T03:44:38;7.00;;;7.00;;
69943;SDS011;57257;48.408;-4.498;2022-08-27T03:47:04;7.00;;;7.00;;
69943;SDS011;57257;48.408;-4.498;2022-08-27T03:49:29;8.25;;;8.25;;
69943;SDS011;57257;48.408;-4.498;2022-08-27T03:51:55;6.00;;;5.75;;
69943;SDS011;57257;48.408;-4.498;2022-08-27T03:54:21;8.50;;;8.25;;
69943;SDS011;57257;48.408;-4.498;2022-08-27T03:56:47;8.00;;;8.00;;
69943;SDS011;57257;48.408;-4.498;2022-08-27T03:59:13;9.25;;;7.25;;
69943;SDS011;57257;48.408;-4.498;2022-08-27T04:01:39;6.00;;;6.00;;
69943;SDS011;57257;48.408;-4.498;2022-08-27T04:04:05;4.00;;;4.00;;
69943;SDS011;57257;48.408;-4.498;2022-08-27T04:06:32;6.25;;;4.00;;
69943;SDS011;57257;48.408;-4.498;2022-08-27T04:08:59;8.50;;;5.50;;
69943;SDS011;57257;48.408;-4.498;2022-08-27T04:11:25;8.75;;;7.75;;
69943;SDS011;57257;48.408;-4.498;2022-08-27T04:13:50;7.75;;;7.50;;
69943;SDS011;57257;48.408;-4.498;2022-08-27T04:16:16;7.50;;;7.50;;
69943;SDS011;57257;48.408;-4.498;2022-08-27T04:18:41;4.00;;;4.00;;
69943;SDS011;57257;48.408;-4.498;2022-08-27T04:21:08;11.25;;;7.00;;
69943;SDS011;57257;48.408;-4.498;2022-08-27T04:23:35;7.25;;;7.25;;
69943;SDS011;57257;48.408;-4.498;2022-08-27T04:26:03;2.50;;;2.50;;
69943;SDS011;57257;48.408;-4.498;2022-08-27T04:28:29;2.50;;;2.50;;
69943;SDS011;57257;48.408;-4.498;2022-08-27T04:30:55;9.00;;;4.50;;
69943;SDS011;57257;48.408;-4.498;2022-08-27T04:33:21;7.00;;;7.00;;
69943;SDS011;57257;48.408;-4.498;2022-08-27T04:35:46;6.00;;;6.00;;
69943;SDS011;57257;48.408;-4.498;2022-08-27T04:38:12;8.00;;;8.00;;
69943;SDS011;57257;48.408;-4.498;2022-08-27T04:40:37;4.50;;;3.00;;
69943;SDS011;57257;48.408;-4.498;2022-08-27T04:43:26;6.00;;;3.00;;
69943;SDS011;57257;48.408;-4.498;2022-08-27T04:45:52;7.25;;;4.50;;
69943;SDS011;57257;48.408;-4.498;2022-08-27T04:48:17;5.50;;;3.00;;
69943;SDS011;57257;48.408;-4.498;2022-08-27T04:50:44;3.25;;;3.25;;
69943;SDS011;57257;48.408;-4.498;2022-08-27T04:53:13;10.00;;;9.00;;
69943;SDS011;57257;48.408;-4.498;2022-08-27T04:55:43;7.00;;;7.00;;
69943;SDS011;57257;48.408;-4.498;2022-08-27T04:58:14;6.25;;;6.00;;
69943;SDS011;57257;48.408;-4.498;2022-08-27T05:00:45;8.00;;;7.00;;
69943;SDS011;57257;48.408;-4.498;2022-08-27T05:03:18;5.00;;;4.50;;
69943;SDS011;57257;48.408;-4.498;2022-08-27T05:05:47;8.25;;;7.25;;
69943;SDS011;57257;48.408;-4.498;2022-08-27T05:08:14;9.00;;;9.00;;
69943;SDS011;57257;48.408;-4.498;2022-08-27T05:13:08;8.00;;;8.00;;
69943;SDS011;57257;48.408;-4.498;2022-08-27T05:15:34;11.00;;;8.00;;
69943;SDS011;57257;48.408;-4.498;2022-08-27T05:18:01;9.00;;;9.00;;
69943;SDS011;57257;48.408;-4.498;2022-08-27T05:20:27;8.75;;;7.75;;
69943;SDS011;57257;48.408;-4.498;2022-08-27T05:22:54;4.00;;;4.00;;
69943;SDS011;57257;48.408;-4.498;2022-08-27T05:25:20;3.50;;;2.50;;
69943;SDS011;57257;48.408;-4.498;2022-08-27T05:27:46;6.00;;;5.50;;
69943;SDS011;57257;48.408;-4.498;2022-08-27T05:30:12;7.00;;;7.00;;
69943;SDS011;57257;48.408;-4.498;2022-08-27T05:32:37;8.25;;;8.00;;
69943;SDS011;57257;48.408;-4.498;2022-08-27T05:35:04;3.50;;;3.50;;
69943;SDS011;57257;48.408;-4.498;2022-08-27T05:37:30;7.00;;;4.00;;
69943;SDS011;57257;48.408;-4.498;2022-08-27T05:39:58;10.50;;;10.25;;
69943;SDS011;57257;48.408;-4.498;2022-08-27T05:42:24;6.50;;;3.25;;
69943;SDS011;57257;48.408;-4.498;2022-08-27T05:44:50;6.00;;;4.00;;
69943;SDS011;57257;48.408;-4.498;2022-08-27T05:47:16;7.00;;;6.25;;
69943;SDS011;57257;48.408;-4.498;2022-08-27T05:49:41;7.25;;;7.25;;
69943;SDS011;57257;48.408;-4.498;2022-08-27T05:52:07;8.00;;;8.00;;
69943;SDS011;57257;48.408;-4.498;2022-08-27T05:54:34;8.00;;;8.00;;
69943;SDS011;57257;48.408;-4.498;2022-08-27T05:56:59;6.75;;;6.75;;
69943;SDS011;57257;48.408;-4.498;2022-08-27T05:59:25;4.00;;;3.00;;
69943;SDS011;57257;48.408;-4.498;2022-08-27T06:02:09;7.00;;;6.50;;
69943;SDS011;57257;48.408;-4.498;2022-08-27T06:04:35;8.00;;;7.00;;
69943;SDS011;57257;48.408;-4.498;2022-08-27T06:07:00;8.50;;;8.50;;
69943;SDS011;57257;48.408;-4.498;2022-08-27T06:09:26;3.25;;;3.25;;
69943;SDS011;57257;48.408;-4.498;2022-08-27T06:11:57;7.25;;;6.00;;
69943;SDS011;57257;48.408;-4.498;2022-08-27T06:14:25;10.25;;;8.50;;
69943;SDS011;57257;48.408;-4.498;2022-08-27T06:16:51;8.50;;;8.00;;
69943;SDS011;57257;48.408;-4.498;2022-08-27T06:19:16;5.25;;;5.25;;
69943;SDS011;57257;48.408;-4.498;2022-08-27T06:21:42;6.00;;;5.25;;
69943;SDS011;57257;48.408;-4.498;2022-08-27T06:24:08;9.00;;;8.25;;
69943;SDS011;57257;48.408;-4.498;2022-08-27T06:26:37;8.00;;;8.00;;
69943;SDS011;57257;48.408;-4.498;2022-08-27T06:29:04;7.25;;;6.00;;
69943;SDS011;57257;48.408;-4.498;2022-08-27T06:31:31;8.50;;;6.75;;
69943;SDS011;57257;48.408;-4.498;2022-08-27T06:34:00;7.00;;;7.00;;
69943;SDS011;57257;48.408;-4.498;2022-08-27T06:36:27;9.00;;;7.00;;
69943;SDS011;57257;48.408;-4.498;2022-08-27T06:38:53;8.50;;;7.00;;
69943;SDS011;57257;48.408;-4.498;2022-08-27T06:41:20;5.75;;;5.75;;
69943;SDS011;57257;48.408;-4.498;2022-08-27T06:43:51;7.25;;;5.25;;
69943;SDS011;57257;48.408;-4.498;2022-08-27T06:46:18;7.25;;;7.00;;
69943;SDS011;57257;48.408;-4.498;2022-08-27T06:48:46;6.00;;;5.75;;
69943;SDS011;57257;48.408;-4.498;2022-08-27T06:51:14;5.75;;;5.00;;
69943;SDS011;57257;48.408;-4.498;2022-08-27T06:53:41;6.00;;;6.00;;
69943;SDS011;57257;48.408;-4.498;2022-08-27T06:56:08;6.50;;;6.50;;
69943;SDS011;57257;48.408;-4.498;2022-08-27T06:58:35;8.00;;;8.00;;
69943;SDS011;57257;48.408;-4.498;2022-08-27T07:01:00;4.75;;;4.00;;
69943;SDS011;57257;48.408;-4.498;2022-08-27T07:03:26;5.25;;;5.25;;
69943;SDS011;57257;48.408;-4.498;2022-08-27T07:05:52;6.00;;;5.00;;
69943;SDS011;57257;48.408;-4.498;2022-08-27T07:08:17;5.00;;;5.00;;
69943;SDS011;57257;48.408;-4.498;2022-08-27T07:10:43;4.00;;;4.00;;
69943;SDS011;57257;48.408;-4.498;2022-08-27T07:13:08;7.25;;;5.50;;
69943;SDS011;57257;48.408;-4.498;2022-08-27T07:15:37;4.00;;;4.00;;
69943;SDS011;57257;48.408;-4.498;2022-08-27T07:18:03;3.25;;;2.75;;
69943;SDS011;57257;48.408;-4.498;2022-08-27T07:20:28;5.00;;;4.50;;
69943;SDS011;57257;48.408;-4.498;2022-08-27T07:22:54;6.00;;;2.50;;
69943;SDS011;57257;48.408;-4.498;2022-08-27T07:25:22;2.75;;;2.75;;
69943;SDS011;57257;48.408;-4.498;2022-08-27T07:27:48;4.00;;;4.00;;
69943;SDS011;57257;48.408;-4.498;2022-08-27T07:30:15;3.00;;;3.00;;
69943;SDS011;57257;48.408;-4.498;2022-08-27T07:32:42;2.00;;;2.00;;
69943;SDS011;57257;48.408;-4.498;2022-08-27T07:35:08;4.00;;;4.00;;
69943;SDS011;57257;48.408;-4.498;2022-08-27T07:37:38;3.50;;;3.50;;
69943;SDS011;57257;48.408;-4.498;2022-08-27T07:40:05;4.25;;;4.25;;
69943;SDS011;57257;48.408;-4.498;2022-08-27T07:42:32;4.50;;;4.50;;
69943;SDS011;57257;48.408;-4.498;2022-08-27T07:45:17;2.00;;;2.00;;
69943;SDS011;57257;48.408;-4.498;2022-08-27T07:47:42;3.75;;;2.00;;
69943;SDS011;57257;48.408;-4.498;2022-08-27T07:50:07;2.50;;;2.50;;
69943;SDS011;57257;48.408;-4.498;2022-08-27T07:52:33;3.00;;;2.00;;
69943;SDS011;57257;48.408;-4.498;2022-08-27T07:54:59;1.00;;;1.00;;
69943;SDS011;57257;48.408;-4.498;2022-08-27T07:57:25;1.00;;;1.00;;
69943;SDS011;57257;48.408;-4.498;2022-08-27T07:59:50;1.25;;;1.25;;
69943;SDS011;57257;48.408;-4.498;2022-08-27T08:02:17;1.00;;;1.00;;
69943;SDS011;57257;48.408;-4.498;2022-08-27T08:04:43;1.00;;;1.00;;
69943;SDS011;57257;48.408;-4.498;2022-08-27T08:07:09;3.75;;;2.00;;
69943;SDS011;57257;48.408;-4.498;2022-08-27T08:09:34;1.25;;;1.25;;
69943;SDS011;57257;48.408;-4.498;2022-08-27T08:12:00;3.00;;;2.00;;
69943;SDS011;57257;48.408;-4.498;2022-08-27T08:14:25;1.00;;;1.00;;
69943;SDS011;57257;48.408;-4.498;2022-08-27T08:16:51;2.00;;;2.00;;
69943;SDS011;57257;48.408;-4.498;2022-08-27T08:19:16;1.75;;;1.00;;
69943;SDS011;57257;48.408;-4.498;2022-08-27T08:21:42;1.50;;;1.00;;
69943;SDS011;57257;48.408;-4.498;2022-08-27T08:24:07;1.75;;;1.25;;
69943;SDS011;57257;48.408;-4.498;2022-08-27T08:26:33;1.75;;;1.75;;
69943;SDS011;57257;48.408;-4.498;2022-08-27T08:28:58;1.25;;;1.25;;
69943;SDS011;57257;48.408;-4.498;2022-08-27T08:31:24;2.00;;;2.00;;
69943;SDS011;57257;48.408;-4.498;2022-08-27T08:33:51;2.25;;;2.25;;
69943;SDS011;57257;48.408;-4.498;2022-08-27T08:36:16;1.25;;;1.25;;
69943;SDS011;57257;48.408;-4.498;2022-08-27T08:38:42;1.00;;;1.00;;
69943;SDS011;57257;48.408;-4.498;2022-08-27T08:41:22;1.00;;;1.00;;
69943;SDS011;57257;48.408;-4.498;2022-08-27T08:43:55;3.00;;;2.00;;
69943;SDS011;57257;48.408;-4.498;2022-08-27T08:46:34;1.00;;;1.00;;
69943;SDS011;57257;48.408;-4.498;2022-08-27T08:49:15;2.00;;;2.00;;
69943;SDS011;57257;48.408;-4.498;2022-08-27T08:51:53;1.00;;;1.00;;
69943;SDS011;57257;48.408;-4.498;2022-08-27T08:54:23;2.00;;;2.00;;
69943;SDS011;57257;48.408;-4.498;2022-08-27T08:57:00;1.00;;;1.00;;
69943;SDS011;57257;48.408;-4.498;2022-08-27T08:59:33;1.75;;;1.75;;
69943;SDS011;57257;48.408;-4.498;2022-08-27T09:02:03;1.25;;;1.25;;
69943;SDS011;57257;48.408;-4.498;2022-08-27T09:04:31;2.75;;;2.00;;
69943;SDS011;57257;48.408;-4.498;2022-08-27T09:07:05;2.00;;;2.00;;
69943;SDS011;57257;48.408;-4.498;2022-08-27T09:12:43;2.00;;;2.00;;
69943;SDS011;57257;48.408;-4.498;2022-08-27T09:15:28;2.75;;;2.75;;
69943;SDS011;57257;48.408;-4.498;2022-08-27T09:18:06;2.00;;;2.00;;
69943;SDS011;57257;48.408;-4.498;2022-08-27T09:20:33;2.00;;;2.00;;
69943;SDS011;57257;48.408;-4.498;2022-08-27T09:25:55;3.00;;;3.00;;
69943;SDS011;57257;48.408;-4.498;2022-08-27T09:28:22;1.00;;;1.00;;
69943;SDS011;57257;48.408;-4.498;2022-08-27T09:31:11;1.50;;;1.50;;
69943;SDS011;57257;48.408;-4.498;2022-08-27T09:33:41;1.75;;;1.75;;
69943;SDS011;57257;48.408;-4.498;2022-08-27T09:36:08;1.00;;;1.00;;
69943;SDS011;57257;48.408;-4.498;2022-08-27T09:38:36;2.00;;;2.00;;
69943;SDS011;57257;48.408;-4.498;2022-08-27T09:41:07;2.00;;;1.00;;
69943;SDS011;57257;48.408;-4.498;2022-08-27T09:43:37;1.75;;;1.75;;
69943;SDS011;57257;48.408;-4.498;2022-08-27T09:46:18;1.00;;;1.00;;
69943;SDS011;57257;48.408;-4.498;2022-08-27T09:48:47;2.00;;;2.00;;
69943;SDS011;57257;48.408;-4.498;2022-08-27T09:51:15;1.00;;;1.00;;
69943;SDS011;57257;48.408;-4.498;2022-08-27T09:54:00;2.00;;;2.00;;
69943;SDS011;57257;48.408;-4.498;2022-08-27T09:56:40;1.25;;;1.25;;
69943;SDS011;57257;48.408;-4.498;2022-08-27T09:59:21;2.00;;;2.00;;
69943;SDS011;57257;48.408;-4.498;2022-08-27T10:01:53;1.00;;;1.00;;
69943;SDS011;57257;48.408;-4.498;2022-08-27T10:04:32;2.50;;;1.00;;
69943;SDS011;57257;48.408;-4.498;2022-08-27T10:07:29;1.00;;;1.00;;
69943;SDS011;57257;48.408;-4.498;2022-08-27T10:12:38;1.00;;;1.00;;
69943;SDS011;57257;48.408;-4.498;2022-08-27T10:15:19;2.00;;;2.00;;
69943;SDS011;57257;48.408;-4.498;2022-08-27T10:23:32;2.00;;;2.00;;
69943;SDS011;57257;48.408;-4.498;2022-08-27T10:28:58;3.00;;;1.25;;
69943;SDS011;57257;48.408;-4.498;2022-08-27T10:31:38;1.50;;;1.00;;
69943;SDS011;57257;48.408;-4.498;2022-08-27T10:34:35;0.50;;;0.50;;
69943;SDS011;57257;48.408;-4.498;2022-08-27T10:37:23;1.00;;;1.00;;
69943;SDS011;57257;48.408;-4.498;2022-08-27T10:48:23;1.00;;;1.00;;
69943;SDS011;57257;48.408;-4.498;2022-08-27T10:50:53;2.00;;;1.50;;
69943;SDS011;57257;48.408;-4.498;2022-08-27T10:53:34;2.00;;;2.00;;
69943;SDS011;57257;48.408;-4.498;2022-08-27T10:56:05;1.00;;;1.00;;
69943;SDS011;57257;48.408;-4.498;2022-08-27T10:58:45;1.00;;;1.00;;
69943;SDS011;57257;48.408;-4.498;2022-08-27T11:01:26;2.00;;;1.00;;
69943;SDS011;57257;48.408;-4.498;2022-08-27T11:04:07;1.00;;;1.00;;
69943;SDS011;57257;48.408;-4.498;2022-08-27T11:06:41;1.25;;;1.00;;
69943;SDS011;57257;48.408;-4.498;2022-08-27T11:09:15;3.75;;;3.00;;
69943;SDS011;57257;48.408;-4.498;2022-08-27T11:11:45;2.50;;;2.50;;
69943;SDS011;57257;48.408;-4.498;2022-08-27T11:14:19;1.00;;;1.00;;
69943;SDS011;57257;48.408;-4.498;2022-08-27T11:16:54;1.75;;;1.75;;
69943;SDS011;57257;48.408;-4.498;2022-08-27T11:24:44;3.25;;;2.00;;
69943;SDS011;57257;48.408;-4.498;2022-08-27T11:27:29;1.75;;;1.75;;
69943;SDS011;57257;48.408;-4.498;2022-08-27T11:29:58;0.25;;;0.25;;
69943;SDS011;57257;48.408;-4.498;2022-08-27T11:43:47;2.00;;;2.00;;
69943;SDS011;57257;48.408;-4.498;2022-08-27T11:46:24;4.75;;;2.50;;
69943;SDS011;57257;48.408;-4.498;2022-08-27T11:48:56;2.00;;;2.00;;
69943;SDS011;57257;48.408;-4.498;2022-08-27T11:51:31;4.00;;;2.00;;
69943;SDS011;57257;48.408;-4.498;2022-08-27T11:54:05;2.75;;;2.75;;
69943;SDS011;57257;48.408;-4.498;2022-08-27T11:56:40;2.00;;;2.00;;
69943;SDS011;57257;48.408;-4.498;2022-08-27T11:59:29;3.00;;;1.75;;
69943;SDS011;57257;48.408;-4.498;2022-08-27T12:01:53;1.25;;;1.25;;
69943;SDS011;57257;48.408;-4.498;2022-08-27T12:09:51;1.00;;;1.00;;
69943;SDS011;57257;48.408;-4.498;2022-08-27T12:12:33;4.00;;;2.00;;
69943;SDS011;57257;48.408;-4.498;2022-08-27T12:15:05;1.75;;;1.75;;
69943;SDS011;57257;48.408;-4.498;2022-08-27T12:23:10;2.00;;;2.00;;
69943;SDS011;57257;48.408;-4.498;2022-08-27T12:37:48;2.00;;;2.00;;
69943;SDS011;57257;48.408;-4.498;2022-08-27T12:40:23;1.00;;;1.00;;
69943;SDS011;57257;48.408;-4.498;2022-08-27T12:43:06;2.00;;;2.00;;
69943;SDS011;57257;48.408;-4.498;2022-08-27T12:45:45;2.25;;;2.25;;
69943;SDS011;57257;48.408;-4.498;2022-08-27T12:48:13;3.75;;;2.25;;
69943;SDS011;57257;48.408;-4.498;2022-08-27T12:50:42;1.75;;;1.75;;
69943;SDS011;57257;48.408;-4.498;2022-08-27T12:53:11;2.00;;;2.00;;
69943;SDS011;57257;48.408;-4.498;2022-08-27T12:55:58;1.00;;;1.00;;
69943;SDS011;57257;48.408;-4.498;2022-08-27T12:58:55;3.50;;;2.00;;
69943;SDS011;57257;48.408;-4.498;2022-08-27T13:01:54;3.25;;;2.00;;
69943;SDS011;57257;48.408;-4.498;2022-08-27T13:04:41;2.00;;;2.00;;
69943;SDS011;57257;48.408;-4.498;2022-08-27T13:07:07;2.00;;;2.00;;
69943;SDS011;57257;48.408;-4.498;2022-08-27T13:09:34;2.00;;;2.00;;
69943;SDS011;57257;48.408;-4.498;2022-08-27T13:12:02;0.75;;;0.75;;
69943;SDS011;57257;48.408;-4.498;2022-08-27T13:14:35;2.00;;;2.00;;
69943;SDS011;57257;48.408;-4.498;2022-08-27T13:17:06;1.25;;;1.25;;
69943;SDS011;57257;48.408;-4.498;2022-08-27T13:19:44;1.00;;;1.00;;
69943;SDS011;57257;48.408;-4.498;2022-08-27T13:22:22;2.00;;;2.00;;
69943;SDS011;57257;48.408;-4.498;2022-08-27T13:24:53;1.50;;;1.50;;
69943;SDS011;57257;48.408;-4.498;2022-08-27T13:27:28;2.00;;;2.00;;
69943;SDS011;57257;48.408;-4.498;2022-08-27T13:29:57;1.00;;;1.00;;
69943;SDS011;57257;48.408;-4.498;2022-08-27T13:32:26;2.00;;;2.00;;
69943;SDS011;57257;48.408;-4.498;2022-08-27T13:34:54;2.50;;;2.50;;
69943;SDS011;57257;48.408;-4.498;2022-08-27T13:37:24;1.50;;;1.50;;
69943;SDS011;57257;48.408;-4.498;2022-08-27T13:39:52;1.75;;;1.75;;
69943;SDS011;57257;48.408;-4.498;2022-08-27T13:42:19;3.50;;;2.00;;
69943;SDS011;57257;48.408;-4.498;2022-08-27T13:44:45;1.00;;;1.00;;
69943;SDS011;57257;48.408;-4.498;2022-08-27T13:49:50;2.00;;;2.00;;
69943;SDS011;57257;48.408;-4.498;2022-08-27T13:52:32;2.00;;;1.75;;
69943;SDS011;57257;48.408;-4.498;2022-08-27T13:55:05;1.00;;;1.00;;
69943;SDS011;57257;48.408;-4.498;2022-08-27T13:57:40;2.00;;;2.00;;
69943;SDS011;57257;48.408;-4.498;2022-08-27T14:00:16;2.00;;;2.00;;
69943;SDS011;57257;48.408;-4.498;2022-08-27T14:02:50;1.00;;;1.00;;
69943;SDS011;57257;48.408;-4.498;2022-08-27T14:07:48;2.75;;;2.25;;
69943;SDS011;57257;48.408;-4.498;2022-08-27T14:13:01;2.00;;;2.00;;
69943;SDS011;57257;48.408;-4.498;2022-08-27T14:18:02;1.00;;;1.00;;
69943;SDS011;57257;48.408;-4.498;2022-08-27T14:20:31;1.25;;;1.25;;
69943;SDS011;57257;48.408;-4.498;2022-08-27T14:22:57;1.00;;;1.00;;
69943;SDS011;57257;48.408;-4.498;2022-08-27T14:25:23;1.50;;;1.50;;
69943;SDS011;57257;48.408;-4.498;2022-08-27T14:27:50;1.25;;;1.25;;
69943;SDS011;57257;48.408;-4.498;2022-08-27T14:30:18;1.00;;;1.00;;
69943;SDS011;57257;48.408;-4.498;2022-08-27T14:32:46;1.00;;;1.00;;
69943;SDS011;57257;48.408;-4.498;2022-08-27T14:35:13;2.50;;;1.00;;
69943;SDS011;57257;48.408;-4.498;2022-08-27T14:37:40;1.00;;;1.00;;
69943;SDS011;57257;48.408;-4.498;2022-08-27T14:40:09;1.00;;;1.00;;
69943;SDS011;57257;48.408;-4.498;2022-08-27T14:42:36;2.50;;;1.00;;
69943;SDS011;57257;48.408;-4.498;2022-08-27T14:45:02;1.00;;;1.00;;
69943;SDS011;57257;48.408;-4.498;2022-08-27T14:47:28;1.00;;;1.00;;
69943;SDS011;57257;48.408;-4.498;2022-08-27T14:49:56;1.00;;;1.00;;
69943;SDS011;57257;48.408;-4.498;2022-08-27T14:52:22;1.00;;;1.00;;
69943;SDS011;57257;48.408;-4.498;2022-08-27T14:54:47;2.25;;;2.00;;
69943;SDS011;57257;48.408;-4.498;2022-08-27T14:57:13;3.75;;;1.00;;
69943;SDS011;57257;48.408;-4.498;2022-08-27T14:59:38;1.00;;;1.00;;
69943;SDS011;57257;48.408;-4.498;2022-08-27T15:02:05;1.00;;;1.00;;
69943;SDS011;57257;48.408;-4.498;2022-08-27T15:04:34;0.50;;;0.50;;
69943;SDS011;57257;48.408;-4.498;2022-08-27T15:07:00;1.00;;;1.00;;
69943;SDS011;57257;48.408;-4.498;2022-08-27T15:09:26;2.00;;;0.25;;
69943;SDS011;57257;48.408;-4.498;2022-08-27T15:11:51;1.75;;;1.00;;
69943;SDS011;57257;48.408;-4.498;2022-08-27T15:14:21;0.25;;;0.00;;
69943;SDS011;57257;48.408;-4.498;2022-08-27T15:16:49;0.25;;;0.25;;
69943;SDS011;57257;48.408;-4.498;2022-08-27T15:19:16;1.00;;;1.00;;
69943;SDS011;57257;48.408;-4.498;2022-08-27T15:21:43;1.00;;;1.00;;
69943;SDS011;57257;48.408;-4.498;2022-08-27T15:24:16;0.00;;;0.00;;
69943;SDS011;57257;48.408;-4.498;2022-08-27T15:26:46;0.00;;;0.00;;
69943;SDS011;57257;48.408;-4.498;2022-08-27T15:29:12;0.00;;;0.00;;
69943;SDS011;57257;48.408;-4.498;2022-08-27T15:31:38;0.00;;;0.00;;
69943;SDS011;57257;48.408;-4.498;2022-08-27T15:34:04;0.00;;;0.00;;
69943;SDS011;57257;48.408;-4.498;2022-08-27T15:36:30;1.00;;;0.00;;
69943;SDS011;57257;48.408;-4.498;2022-08-27T15:38:56;0.00;;;0.00;;
69943;SDS011;57257;48.408;-4.498;2022-08-27T15:41:22;0.00;;;0.00;;
69943;SDS011;57257;48.408;-4.498;2022-08-27T15:43:47;0.00;;;0.00;;
69943;SDS011;57257;48.408;-4.498;2022-08-27T15:46:13;0.00;;;0.00;;
69943;SDS011;57257;48.408;-4.498;2022-08-27T15:48:38;0.00;;;0.00;;
69943;SDS011;57257;48.408;-4.498;2022-08-27T15:51:05;0.00;;;0.00;;
69943;SDS011;57257;48.408;-4.498;2022-08-27T15:53:33;0.00;;;0.00;;
69943;SDS011;57257;48.408;-4.498;2022-08-27T15:56:00;0.00;;;0.00;;
69943;SDS011;57257;48.408;-4.498;2022-08-27T15:58:28;0.00;;;0.00;;
69943;SDS011;57257;48.408;-4.498;2022-08-27T16:00:54;0.50;;;0.50;;
69943;SDS011;57257;48.408;-4.498;2022-08-27T16:03:19;0.00;;;0.00;;
69943;SDS011;57257;48.408;-4.498;2022-08-27T16:05:45;0.00;;;0.00;;
69943;SDS011;57257;48.408;-4.498;2022-08-27T16:08:11;0.00;;;0.00;;
69943;SDS011;57257;48.408;-4.498;2022-08-27T16:10:38;1.00;;;1.00;;